createdAt,value
2023-01-20T00:01:37.955Z,4.41
2023-01-20T00:04:05.915Z,4.54
2023-01-20T00:06:33.411Z,4.35
2023-01-20T00:09:02.596Z,4.23
2023-01-20T00:11:30.337Z,4.02
2023-01-20T00:14:00.173Z,3.88
2023-01-20T00:16:28.581Z,3.79
2023-01-20T00:18:55.953Z,4.01
2023-01-20T00:21:23.105Z,3.91
2023-01-20T00:23:50.606Z,3.82
2023-01-20T00:26:23.743Z,3.91
2023-01-20T00:28:54.496Z,3.76
2023-01-20T00:31:25.010Z,3.61
2023-01-20T00:33:54.807Z,3.74
2023-01-20T00:36:23.709Z,3.74
2023-01-20T00:38:51.618Z,3.75
2023-01-20T00:41:19.708Z,3.78
2023-01-20T00:43:47.276Z,3.79
2023-01-20T00:46:15.593Z,3.89
2023-01-20T00:48:43.415Z,3.89
2023-01-20T00:51:13.252Z,3.99
2023-01-20T00:53:40.521Z,4.05
2023-01-20T00:56:09.288Z,4.21
2023-01-20T00:58:36.428Z,4.05
2023-01-20T01:01:03.762Z,3.89
2023-01-20T01:03:31.439Z,3.97
2023-01-20T01:06:10.300Z,4.02
2023-01-20T01:08:37.576Z,3.88
2023-01-20T01:11:05.579Z,3.96
2023-01-20T01:13:33.374Z,3.99
2023-01-20T01:16:01.282Z,3.92
2023-01-20T01:18:29.472Z,3.87
2023-01-20T01:20:56.861Z,3.79
2023-01-20T01:23:24.177Z,3.78
2023-01-20T01:25:51.513Z,3.71
2023-01-20T01:28:18.634Z,3.54
2023-01-20T01:30:45.973Z,3.37
2023-01-20T01:33:13.250Z,3.20
2023-01-20T01:35:41.186Z,3.41
2023-01-20T01:38:08.263Z,3.51
2023-01-20T01:40:35.696Z,3.46
2023-01-20T01:43:02.948Z,3.49
2023-01-20T01:45:31.142Z,3.48
2023-01-20T01:48:18.962Z,3.55
2023-01-20T01:51:14.545Z,3.47
2023-01-20T01:53:46.716Z,3.49
2023-01-20T01:56:16.472Z,3.62
2023-01-20T01:58:48.930Z,3.57
2023-01-20T02:01:16.429Z,3.54
2023-01-20T02:03:53.512Z,3.47
2023-01-20T02:06:24.773Z,3.43
2023-01-20T02:08:53.230Z,3.27
2023-01-20T02:11:20.327Z,3.35
2023-01-20T02:13:47.874Z,3.39
2023-01-20T02:16:27.777Z,3.17
2023-01-20T02:19:29.806Z,3.44
2023-01-20T02:22:18.286Z,3.54
2023-01-20T02:25:00.482Z,3.47
2023-01-20T02:28:01.643Z,3.44
2023-01-20T02:30:38.932Z,3.54
2023-01-20T02:33:27.029Z,3.80
2023-01-20T02:36:06.795Z,3.81
2023-01-20T02:38:56.749Z,3.85
2023-01-20T02:41:32.314Z,3.76
2023-01-20T02:44:12.630Z,4.09
2023-01-20T02:46:49.039Z,4.16
2023-01-20T02:49:59.350Z,4.25
2023-01-20T02:52:30.514Z,4.22
2023-01-20T02:55:02.628Z,4.33
2023-01-20T02:57:42.282Z,4.36
2023-01-20T03:00:23.170Z,4.45
2023-01-20T03:02:53.916Z,4.45
2023-01-20T03:05:26.286Z,4.78
2023-01-20T03:07:56.161Z,4.95
2023-01-20T03:10:26.786Z,5.04
2023-01-20T03:13:14.471Z,5.25
2023-01-20T03:16:06.811Z,5.06
2023-01-20T03:18:35.520Z,4.83
2023-01-20T03:21:05.453Z,5.16
2023-01-20T03:23:36.085Z,5.10
2023-01-20T03:26:10.798Z,5.10
2023-01-20T03:28:39.261Z,5.24
2023-01-20T03:31:16.997Z,5.18
2023-01-20T03:33:47.661Z,5.23
2023-01-20T03:36:17.164Z,5.28
2023-01-20T03:38:45.522Z,5.54
2023-01-20T03:41:41.554Z,5.35
2023-01-20T03:44:33.045Z,5.57
2023-01-20T03:47:00.597Z,5.50
2023-01-20T03:49:39.435Z,5.54
2023-01-20T03:52:18.063Z,5.65
2023-01-20T03:54:52.747Z,5.84
2023-01-20T03:57:26.572Z,5.79
2023-01-20T03:59:54.624Z,5.91
2023-01-20T04:02:24.276Z,5.89
2023-01-20T04:04:53.019Z,6.04
2023-01-20T04:07:25.467Z,6.29
2023-01-20T04:10:03.101Z,6.27
2023-01-20T04:12:30.932Z,6.25
2023-01-20T04:14:59.895Z,6.13
2023-01-20T04:17:29.117Z,6.23
2023-01-20T04:20:05.187Z,6.39
2023-01-20T04:22:39.742Z,6.13
2023-01-20T04:25:16.894Z,6.04
2023-01-20T04:27:47.460Z,5.99
2023-01-20T04:30:15.040Z,5.79
2023-01-20T04:32:42.347Z,5.88
2023-01-20T04:35:14.680Z,5.78
2023-01-20T04:37:45.575Z,5.84
2023-01-20T04:40:13.560Z,5.81
2023-01-20T04:42:40.811Z,5.94
2023-01-20T04:45:08.432Z,6.05
2023-01-20T04:47:36.205Z,5.96
2023-01-20T04:50:04.689Z,6.06
2023-01-20T04:52:32.386Z,6.29
2023-01-20T04:54:59.779Z,6.40
2023-01-20T04:57:27.236Z,6.55
2023-01-20T04:59:54.778Z,6.51
2023-01-20T05:02:22.057Z,6.30
2023-01-20T05:04:49.387Z,6.31
2023-01-20T05:07:16.652Z,6.28
2023-01-20T05:09:43.994Z,6.25
2023-01-20T05:12:12.832Z,6.37
2023-01-20T05:14:40.240Z,6.23
2023-01-20T05:17:07.465Z,6.18
2023-01-20T05:19:34.710Z,6.24
2023-01-20T05:22:01.852Z,6.24
2023-01-20T05:24:30.959Z,6.31
2023-01-20T05:27:01.913Z,6.37
2023-01-20T05:29:29.860Z,6.49
2023-01-20T05:31:58.284Z,6.61
2023-01-20T05:34:25.577Z,6.62
2023-01-20T05:36:54.310Z,6.69
2023-01-20T05:39:22.194Z,6.70
2023-01-20T05:41:49.552Z,7.04
2023-01-20T05:44:17.229Z,7.00
2023-01-20T05:46:44.705Z,7.10
2023-01-20T05:49:15.480Z,6.97
2023-01-20T05:51:42.556Z,6.94
2023-01-20T05:54:10.044Z,6.51
2023-01-20T05:56:39.921Z,6.48
2023-01-20T05:59:07.961Z,6.56
2023-01-20T06:01:35.103Z,6.44
2023-01-20T06:04:02.378Z,6.61
2023-01-20T06:06:32.867Z,6.41
2023-01-20T06:08:59.965Z,6.49
2023-01-20T06:11:27.842Z,6.45
2023-01-20T06:13:54.938Z,6.57
2023-01-20T06:16:22.146Z,6.51
2023-01-20T06:18:49.269Z,6.38
2023-01-20T06:21:16.649Z,6.49
2023-01-20T06:23:43.962Z,6.46
2023-01-20T06:26:13.027Z,6.24
2023-01-20T06:28:40.715Z,6.11
2023-01-20T06:31:11.258Z,6.27
2023-01-20T06:33:38.552Z,6.35
2023-01-20T06:36:06.558Z,6.36
2023-01-20T06:38:35.466Z,6.69
2023-01-20T06:41:10.699Z,6.66
2023-01-20T06:43:42.340Z,6.66
2023-01-20T06:46:15.071Z,6.60
2023-01-20T06:48:43.747Z,6.44
2023-01-20T06:51:14.240Z,6.52
2023-01-20T06:53:41.612Z,6.48
2023-01-20T06:56:12.355Z,6.48
2023-01-20T06:58:40.555Z,6.32
2023-01-20T07:01:16.603Z,6.56
2023-01-20T07:03:43.983Z,6.57
2023-01-20T07:06:25.867Z,6.68
2023-01-20T07:08:52.975Z,6.76
2023-01-20T07:11:20.350Z,7.03
2023-01-20T07:13:47.671Z,7.34
2023-01-20T07:16:16.179Z,7.58
2023-01-20T07:18:47.300Z,7.64
2023-01-20T07:21:14.778Z,7.72
2023-01-20T07:23:42.004Z,7.85
2023-01-20T07:26:11.936Z,7.88
2023-01-20T07:28:39.941Z,7.90
2023-01-20T07:31:08.481Z,7.67
2023-01-20T07:33:36.741Z,7.66
2023-01-20T07:36:05.278Z,7.84
2023-01-20T07:38:33.223Z,8.08
2023-01-20T07:41:03.495Z,7.83
2023-01-20T07:43:32.797Z,7.58
2023-01-20T07:46:02.729Z,7.47
2023-01-20T07:48:31.667Z,7.64
2023-01-20T07:51:05.622Z,7.86
2023-01-20T07:53:41.056Z,7.97
2023-01-20T07:56:12.089Z,7.43
2023-01-20T07:58:40.211Z,7.32
2023-01-20T08:01:13.863Z,7.63
2023-01-20T08:03:41.514Z,7.69
2023-01-20T08:06:11.176Z,7.74
2023-01-20T08:08:39.072Z,7.85
2023-01-20T08:11:07.770Z,7.86
2023-01-20T08:13:35.194Z,7.83
2023-01-20T08:16:08.724Z,8.04
2023-01-20T08:18:36.717Z,7.99
2023-01-20T08:21:06.854Z,7.63
2023-01-20T08:23:37.915Z,7.78
2023-01-20T08:26:07.716Z,8.03
2023-01-20T08:28:37.533Z,8.22
2023-01-20T08:31:11.985Z,8.23
2023-01-20T08:33:40.438Z,8.36
2023-01-20T08:36:17.566Z,8.05
2023-01-20T08:38:45.626Z,8.10
2023-01-20T08:41:16.002Z,8.42
2023-01-20T08:43:43.435Z,8.45
2023-01-20T08:46:13.052Z,8.46
2023-01-20T08:48:42.314Z,8.69
2023-01-20T08:51:30.849Z,8.99
2023-01-20T08:53:59.151Z,8.68
2023-01-20T08:56:26.855Z,8.75
2023-01-20T08:58:54.895Z,8.68
2023-01-20T09:01:25.291Z,8.83
2023-01-20T09:04:04.755Z,8.83
2023-01-20T09:06:48.683Z,8.69
2023-01-20T09:09:17.887Z,8.67
2023-01-20T09:11:51.256Z,8.87
2023-01-20T09:14:20.403Z,8.68
2023-01-20T09:16:47.891Z,8.90
2023-01-20T09:19:15.724Z,8.89
2023-01-20T09:21:44.467Z,8.88
2023-01-20T09:24:11.744Z,8.84
2023-01-20T09:26:39.561Z,8.56
2023-01-20T09:29:10.859Z,8.63
2023-01-20T09:31:40.580Z,8.60
2023-01-20T09:34:07.852Z,8.38
2023-01-20T09:36:35.105Z,8.04
2023-01-20T09:39:20.708Z,7.90
2023-01-20T09:42:07.767Z,8.01
2023-01-20T09:44:38.055Z,7.85
2023-01-20T09:47:32.676Z,7.54
2023-01-20T09:50:24.415Z,7.84
2023-01-20T09:53:08.446Z,7.63
2023-01-20T09:55:41.233Z,8.01
2023-01-20T09:58:14.541Z,7.97
2023-01-20T10:00:48.127Z,8.05
2023-01-20T10:03:25.470Z,8.02
2023-01-20T10:05:57.620Z,7.90
2023-01-20T10:08:41.406Z,7.53
2023-01-20T10:11:20.522Z,7.32
2023-01-20T10:13:56.583Z,7.46
2023-01-20T10:16:30.075Z,7.61
2023-01-20T10:19:13.774Z,7.64
2023-01-20T10:21:53.236Z,7.92
2023-01-20T10:24:31.999Z,7.97
2023-01-20T10:27:04.234Z,8.14
2023-01-20T10:29:38.906Z,8.08
2023-01-20T10:32:34.056Z,7.73
2023-01-20T10:35:09.447Z,7.94
2023-01-20T10:37:36.775Z,8.41
2023-01-20T10:40:20.115Z,8.55
2023-01-20T10:42:57.662Z,8.79
2023-01-20T10:45:46.013Z,9.06
2023-01-20T10:48:50.590Z,9.24
2023-01-20T10:51:33.979Z,9.16
2023-01-20T10:54:24.541Z,9.10
2023-01-20T10:56:57.046Z,9.02
2023-01-20T10:59:52.309Z,9.06
2023-01-20T11:02:28.326Z,9.29
2023-01-20T11:05:00.279Z,9.30
2023-01-20T11:07:29.379Z,9.06
2023-01-20T11:09:56.508Z,8.81
2023-01-20T11:12:27.542Z,8.96
2023-01-20T11:15:00.043Z,8.54
2023-01-20T11:17:27.423Z,8.39
2023-01-20T11:20:05.577Z,8.38
2023-01-20T11:22:36.634Z,8.54
2023-01-20T11:25:05.257Z,8.75
2023-01-20T11:27:41.811Z,8.75
2023-01-20T11:30:21.473Z,8.73
2023-01-20T11:33:20.857Z,8.84
2023-01-20T11:36:16.932Z,8.74
2023-01-20T11:38:47.310Z,8.54
2023-01-20T11:41:34.863Z,8.71
2023-01-20T11:44:02.177Z,8.35
2023-01-20T11:46:34.918Z,8.24
2023-01-20T11:49:22.931Z,8.08
2023-01-20T11:51:53.297Z,7.69
2023-01-20T11:54:26.612Z,7.41
2023-01-20T11:57:05.084Z,7.15
2023-01-20T11:59:35.299Z,6.88
2023-01-20T12:02:23.769Z,6.78
2023-01-20T12:05:07.585Z,6.75
2023-01-20T12:07:54.404Z,6.83
2023-01-20T12:10:29.832Z,6.93
2023-01-20T12:13:06.219Z,6.93
2023-01-20T12:15:38.010Z,7.15
2023-01-20T12:18:18.444Z,7.41
2023-01-20T12:20:56.232Z,7.47
2023-01-20T12:23:23.316Z,7.29
2023-01-20T12:26:00.987Z,7.18
2023-01-20T12:29:19.027Z,7.03
2023-01-20T12:31:49.521Z,7.17
2023-01-20T12:34:24.630Z,7.44
2023-01-20T12:37:42.615Z,7.87
2023-01-20T12:40:31.063Z,8.39
2023-01-20T12:43:23.218Z,8.28
2023-01-20T12:46:22.785Z,8.29
2023-01-20T12:49:13.603Z,8.40
2023-01-20T12:51:48.142Z,8.55
2023-01-20T12:54:47.756Z,8.71
2023-01-20T12:57:25.767Z,8.81
2023-01-20T13:00:18.756Z,8.76
2023-01-20T13:03:36.605Z,9.25
2023-01-20T13:06:36.082Z,9.40
2023-01-20T13:09:18.577Z,9.26
2023-01-20T13:12:07.087Z,8.98
2023-01-20T13:14:46.838Z,8.88
2023-01-20T13:17:20.005Z,8.54
2023-01-20T13:19:49.681Z,8.52
2023-01-20T13:22:22.846Z,8.24
2023-01-20T13:24:55.101Z,8.07
2023-01-20T13:27:43.786Z,7.93
2023-01-20T13:30:53.133Z,7.84
2023-01-20T13:33:39.117Z,7.77
2023-01-20T13:36:34.133Z,7.67
2023-01-20T13:39:46.269Z,7.68
2023-01-20T13:42:49.130Z,7.59
2023-01-20T13:45:20.451Z,7.46
2023-01-20T13:48:22.615Z,7.37
2023-01-20T13:50:50.684Z,7.22
2023-01-20T13:53:20.818Z,7.04
2023-01-20T13:55:48.546Z,6.79
2023-01-20T13:58:27.803Z,6.84
2023-01-20T14:00:57.931Z,6.80
2023-01-20T14:03:28.277Z,6.66
2023-01-20T14:06:01.758Z,6.67
2023-01-20T14:08:37.056Z,6.88
2023-01-20T14:11:10.915Z,6.92
2023-01-20T14:13:38.728Z,6.99
2023-01-20T14:16:06.462Z,6.76
2023-01-20T14:18:34.009Z,6.90
2023-01-20T14:21:23.763Z,6.83
2023-01-20T14:23:53.455Z,6.68
2023-01-20T14:26:27.744Z,6.57
2023-01-20T14:29:01.756Z,6.51
2023-01-20T14:31:45.499Z,6.53
2023-01-20T14:34:22.787Z,6.48
2023-01-20T14:36:51.869Z,6.59
2023-01-20T14:39:26.052Z,6.40
2023-01-20T14:41:58.153Z,6.23
2023-01-20T14:44:35.262Z,6.21
2023-01-20T14:47:04.145Z,6.15
2023-01-20T14:49:34.406Z,6.60
2023-01-20T14:52:02.369Z,6.70
2023-01-20T14:54:41.779Z,6.62
2023-01-20T14:57:32.098Z,6.68
2023-01-20T15:00:05.590Z,6.53
2023-01-20T15:02:36.445Z,6.45
2023-01-20T15:05:20.637Z,6.51
2023-01-20T15:07:47.805Z,6.44
2023-01-20T15:10:17.706Z,6.24
2023-01-20T15:12:45.098Z,6.14
2023-01-20T15:15:32.777Z,6.23
2023-01-20T15:18:11.845Z,6.09
2023-01-20T15:20:42.035Z,6.35
2023-01-20T15:23:17.544Z,6.00
2023-01-20T15:25:48.222Z,6.03
2023-01-20T15:28:25.388Z,6.13
2023-01-20T15:30:54.408Z,5.86
2023-01-20T15:33:23.846Z,5.66
2023-01-20T15:35:53.926Z,5.44
2023-01-20T15:38:21.617Z,5.43
2023-01-20T15:40:49.390Z,5.57
2023-01-20T15:43:18.588Z,5.62
2023-01-20T15:45:46.382Z,5.92
2023-01-20T15:48:22.490Z,6.10
2023-01-20T15:50:49.872Z,5.96
2023-01-20T15:53:17.593Z,6.05
2023-01-20T15:55:52.029Z,6.13
2023-01-20T15:58:32.965Z,6.36
2023-01-20T16:01:00.642Z,6.27
2023-01-20T16:03:28.640Z,5.97
2023-01-20T16:05:56.779Z,5.84
2023-01-20T16:08:32.986Z,5.74
2023-01-20T16:11:00.307Z,5.63
2023-01-20T16:13:27.523Z,5.47
2023-01-20T16:15:55.555Z,5.30
2023-01-20T16:18:22.932Z,5.23
2023-01-20T16:20:50.344Z,5.28
2023-01-20T16:23:17.993Z,5.23
2023-01-20T16:25:48.834Z,5.58
2023-01-20T16:28:21.602Z,5.87
2023-01-20T16:30:49.309Z,5.71
2023-01-20T16:33:34.655Z,5.58
2023-01-20T16:36:06.955Z,5.57
2023-01-20T16:38:34.787Z,5.72
2023-01-20T16:41:11.982Z,5.71
2023-01-20T16:43:43.417Z,6.03
2023-01-20T16:46:23.297Z,6.14
2023-01-20T16:48:51.619Z,6.10
2023-01-20T16:51:23.423Z,5.76
2023-01-20T16:54:01.393Z,5.49
2023-01-20T16:56:31.694Z,5.06
2023-01-20T16:59:01.772Z,5.09
2023-01-20T17:01:31.025Z,5.10
2023-01-20T17:04:01.111Z,4.93
2023-01-20T17:06:31.208Z,4.51
2023-01-20T17:09:00.416Z,4.75
2023-01-20T17:11:32.955Z,4.83
2023-01-20T17:14:02.693Z,4.77
2023-01-20T17:16:30.476Z,4.94
2023-01-20T17:18:59.917Z,4.76
2023-01-20T17:21:29.433Z,4.43
2023-01-20T17:24:00.434Z,4.60
2023-01-20T17:26:28.649Z,4.68
2023-01-20T17:28:58.181Z,4.63
2023-01-20T17:31:26.341Z,4.67
2023-01-20T17:33:53.806Z,4.74
2023-01-20T17:36:21.297Z,4.81
2023-01-20T17:38:48.889Z,5.12
2023-01-20T17:41:16.207Z,4.95
2023-01-20T17:43:46.454Z,4.85
2023-01-20T17:46:30.421Z,5.15
2023-01-20T17:49:00.284Z,5.41
2023-01-20T17:51:29.370Z,5.25
2023-01-20T17:54:03.389Z,5.32
2023-01-20T17:56:31.722Z,5.20
2023-01-20T17:58:59.017Z,4.99
2023-01-20T18:01:33.816Z,4.61
2023-01-20T18:04:04.417Z,4.57
2023-01-20T18:06:35.124Z,4.51
2023-01-20T18:09:02.576Z,4.21
2023-01-20T18:11:32.788Z,4.33
2023-01-20T18:14:00.882Z,4.30
2023-01-20T18:16:34.202Z,4.70
2023-01-20T18:19:02.629Z,4.89
2023-01-20T18:21:38.208Z,4.61
2023-01-20T18:24:07.847Z,4.58
2023-01-20T18:26:37.420Z,4.30
2023-01-20T18:29:07.781Z,4.60
2023-01-20T18:31:35.709Z,4.76
2023-01-20T18:34:05.750Z,4.68
2023-01-20T18:36:35.383Z,4.86
2023-01-20T18:39:23.703Z,5.08
2023-01-20T18:41:51.714Z,5.24
2023-01-20T18:44:19.446Z,5.28
2023-01-20T18:46:47.133Z,5.36
2023-01-20T18:49:16.118Z,4.97
2023-01-20T18:51:43.950Z,4.70
2023-01-20T18:54:14.782Z,4.83
2023-01-20T18:56:43.031Z,4.63
2023-01-20T18:59:13.301Z,4.69
2023-01-20T19:01:41.278Z,4.48
2023-01-20T19:04:12.943Z,4.62
2023-01-20T19:06:45.603Z,4.59
2023-01-20T19:09:16.111Z,4.65
2023-01-20T19:11:43.665Z,4.83
2023-01-20T19:14:13.955Z,4.77
2023-01-20T19:16:45.600Z,4.69
2023-01-20T19:19:13.742Z,4.58
2023-01-20T19:21:40.860Z,4.70
2023-01-20T19:24:11.009Z,4.59
2023-01-20T19:26:39.827Z,4.49
2023-01-20T19:29:10.662Z,4.42
2023-01-20T19:31:40.431Z,4.27
2023-01-20T19:34:09.368Z,4.31
2023-01-20T19:36:36.983Z,4.35
2023-01-20T19:39:05.089Z,4.43
2023-01-20T19:41:34.608Z,4.31
2023-01-20T19:44:04.252Z,4.18
2023-01-20T19:46:34.621Z,4.23
2023-01-20T19:49:02.718Z,4.41
2023-01-20T19:51:31.886Z,4.31
2023-01-20T19:54:01.313Z,4.43
2023-01-20T19:56:31.642Z,4.57
2023-01-20T19:59:00.852Z,4.37
2023-01-20T20:01:31.870Z,3.93
2023-01-20T20:04:00.239Z,3.38
2023-01-20T20:06:29.741Z,3.16
2023-01-20T20:09:02.583Z,2.83
2023-01-20T20:11:31.377Z,3.10
2023-01-20T20:14:00.681Z,3.31
2023-01-20T20:16:31.307Z,3.40
2023-01-20T20:18:59.103Z,3.17
2023-01-20T20:21:27.621Z,3.39
2023-01-20T20:23:57.639Z,3.25
2023-01-20T20:26:29.191Z,3.27
2023-01-20T20:28:57.810Z,2.95
2023-01-20T20:31:29.691Z,3.38
2023-01-20T20:34:02.140Z,3.22
2023-01-20T20:36:31.297Z,3.25
2023-01-20T20:38:59.315Z,3.47
2023-01-20T20:41:29.220Z,3.56
2023-01-20T20:43:57.559Z,3.76
2023-01-20T20:46:26.134Z,3.56
2023-01-20T20:48:55.340Z,3.64
2023-01-20T20:51:26.414Z,3.39
2023-01-20T20:53:58.129Z,3.31
2023-01-20T20:56:28.557Z,3.48
2023-01-20T20:59:02.032Z,3.39
2023-01-20T21:01:33.149Z,3.22
2023-01-20T21:04:01.400Z,2.94
2023-01-20T21:06:29.979Z,2.90
2023-01-20T21:08:58.822Z,2.92
2023-01-20T21:11:26.252Z,2.81
2023-01-20T21:13:53.849Z,3.04
2023-01-20T21:16:23.540Z,2.77
2023-01-20T21:18:56.505Z,2.55
2023-01-20T21:21:24.674Z,2.50
2023-01-20T21:23:54.344Z,2.70
2023-01-20T21:26:22.640Z,2.47
2023-01-20T21:28:52.343Z,2.59
2023-01-20T21:31:25.275Z,2.40
2023-01-20T21:33:58.607Z,2.30
2023-01-20T21:36:27.222Z,2.13
2023-01-20T21:38:54.551Z,1.96
2023-01-20T21:41:22.146Z,1.90
2023-01-20T21:44:08.411Z,2.08
2023-01-20T21:46:39.493Z,2.01
2023-01-20T21:49:27.290Z,2.20
2023-01-20T21:52:15.151Z,2.43
2023-01-20T21:54:45.780Z,2.59
2023-01-20T21:57:15.020Z,2.59
2023-01-20T21:59:42.684Z,2.54
2023-01-20T22:02:12.468Z,2.83
2023-01-20T22:04:42.421Z,2.82
2023-01-20T22:07:10.575Z,2.59
2023-01-20T22:09:38.052Z,2.65
2023-01-20T22:12:07.319Z,3.01
2023-01-20T22:14:34.600Z,3.15
2023-01-20T22:17:01.982Z,3.01
2023-01-20T22:19:29.229Z,2.98
2023-01-20T22:21:57.040Z,3.00
2023-01-20T22:24:24.223Z,2.68
2023-01-20T22:26:51.940Z,3.11
2023-01-20T22:29:19.159Z,3.21
2023-01-20T22:31:47.210Z,3.23
2023-01-20T22:34:14.567Z,3.10
2023-01-20T22:36:41.966Z,3.15
2023-01-20T22:39:12.051Z,2.96
2023-01-20T22:41:39.304Z,3.08
2023-01-20T22:44:06.742Z,3.03
2023-01-20T22:46:33.995Z,2.82
2023-01-20T22:49:01.204Z,3.09
2023-01-20T22:51:31.221Z,2.99
2023-01-20T22:54:01.068Z,2.98
2023-01-20T22:56:30.989Z,3.07
2023-01-20T22:58:59.690Z,3.29
2023-01-20T23:01:30.756Z,3.78
2023-01-20T23:04:03.776Z,3.85
2023-01-20T23:06:33.938Z,4.26
2023-01-20T23:09:03.454Z,4.47
2023-01-20T23:11:31.251Z,4.48
2023-01-20T23:13:59.383Z,5.07
2023-01-20T23:16:26.713Z,5.37
2023-01-20T23:18:54.092Z,5.56
2023-01-20T23:21:22.364Z,5.68
2023-01-20T23:23:56.998Z,5.87
2023-01-20T23:26:27.523Z,5.72
2023-01-20T23:28:55.666Z,5.88
2023-01-20T23:31:25.324Z,6.08
2023-01-20T23:33:54.555Z,6.22
2023-01-20T23:36:26.536Z,6.16
2023-01-20T23:38:55.509Z,5.98
2023-01-20T23:41:23.510Z,5.60
2023-01-20T23:43:50.924Z,5.80
2023-01-20T23:46:18.129Z,5.72
2023-01-20T23:48:46.855Z,5.60
2023-01-20T23:51:15.119Z,5.53
2023-01-20T23:53:42.791Z,5.50
2023-01-20T23:56:16.595Z,5.44
2023-01-20T23:58:44.490Z,5.11
